OEJN/JED METAR and TAF weather

Enter ICAO airport designator
Station Type Date Time Source
OEJN METAR 2022/12/04 11:00 UTC NOAA

OEJN 041100Z 27008KT 8000 SCT035 SCT080 31/21 Q1011 NOSIG


Station Type Date Time Source
OEJN Decoded METAR 2022/12/04 11:00 UTC NOAA

Jeddah King Abdul Aziz International Airport , Saudi Arabia (OEJN) 21-42N 039-11E 17M
Dec 04, 2022 - 06:00 AM EST / 2022.12.04 1100 UTC
Wind: from the W (270 degrees) at 9 MPH (8 KT):0
Visibility: 4 mile(s):0
Sky conditions: partly cloudy
Temperature: 87 F (31 C)
Dew Point: 69 F (21 C)
Relative Humidity: 55%
Pressure (altimeter): 29.85 in. Hg (1011 hPa)
ob: OEJN 041100Z 27008KT 8000 SCT035 SCT080 31/21 Q1011 NOSIG
cycle: 11

Station Type Date Time Source
OEJN TAF 2022/12/04 06:33 UTC NOAA

TAF OEJN 040500Z 0406/0512 30010KT 7000 FEW040
BECMG 0418/0420 03005KT
BECMG 0508/0510 29010KT

Example: see airport list